Time;durP1;ratioP1;P1;durP2;ratioP2;P2;SDS_P1;SDS_P2;PMS_P1;PMS_P2;Temp;Humidity;BMP_temperature;BMP_pressure;BME280_temperature;BME280_humidity;BME280_pressure;Samples;Min_cycle;Max_cycle;Signal;HPM_P1;HPM_P2
2022/01/26 00:07:25;;;;;;;22.58;7.65;;;-0.80;99.90;;;;;;5055970;28;20614;-85
2022/01/26 00:09:50;;;;;;;31.25;7.82;;;-0.70;99.90;;;;;;5037689;28;20135;-85
2022/01/26 00:12:17;;;;;;;23.92;6.90;;;-0.70;99.90;;;;;;5036758;28;20377;-85
2022/01/26 00:14:44;;;;;;;33.03;6.68;;;-0.70;99.90;;;;;;5035387;28;20074;-85
2022/01/26 00:17:11;;;;;;;21.23;7.18;;;-0.70;99.90;;;;;;5039755;28;20032;-85
2022/01/26 00:20:04;;;;;;;26.58;7.07;;;-0.70;99.90;;;;;;5040646;28;20082;-84
2022/01/26 00:38:39;;;;;;;57.60;7.80;;;-0.70;99.90;;;;;;5092970;28;20488;-84
2022/01/26 00:41:08;;;;;;;54.58;10.13;;;-0.70;99.90;;;;;;5074342;28;20039;-85
2022/01/26 00:43:35;;;;;;;28.05;7.95;;;-0.70;99.90;;;;;;5072920;28;20020;-84
2022/01/26 00:46:04;;;;;;;42.67;7.75;;;-0.70;99.90;;;;;;5055986;28;20062;-85
2022/01/26 00:48:37;;;;;;;21.80;5.70;;;-0.70;99.90;;;;;;5072366;28;20028;-85
2022/01/26 00:51:06;;;;;;;43.60;6.80;;;-0.70;99.90;;;;;;5060185;28;20036;-84
2022/01/26 00:53:37;;;;;;;39.00;7.35;;;-0.80;99.90;;;;;;5047431;28;20052;-85
2022/01/26 00:56:03;;;;;;;;;;;-0.80;99.90;;;;;;5049555;28;20036;-85
2022/01/26 00:58:30;;;;;;;32.80;7.65;;;-0.80;99.90;;;;;;5071761;28;19926;-84
2022/01/26 01:00:58;;;;;;;32.05;7.63;;;-0.80;99.90;;;;;;5039128;28;20035;-85
2022/01/26 01:03:23;;;;;;;38.72;8.43;;;-0.80;99.90;;;;;;5071352;28;20059;-85
2022/01/26 01:08:18;;;;;;;25.67;8.30;;;-0.80;99.90;;;;;;5055370;28;20400;-85
2022/01/26 01:10:48;;;;;;;48.70;8.02;;;-0.80;99.90;;;;;;5072758;28;20460;-85
2022/01/26 01:13:20;;;;;;;30.60;8.30;;;-0.80;99.90;;;;;;5056590;28;20030;-85
2022/01/26 01:15:48;;;;;;;29.52;7.53;;;-0.80;99.90;;;;;;5056568;28;20036;-84
2022/01/26 01:18:31;;;;;;;44.10;8.35;;;-0.80;99.90;;;;;;5071645;28;20225;-84
2022/01/26 01:31:54;;;;;;;29.33;7.28;;;-0.80;99.90;;;;;;5066509;28;20093;-85
2022/01/26 01:34:29;;;;;;;75.07;8.95;;;-0.90;99.90;;;;;;5055903;28;20032;-85
2022/01/26 01:37:02;;;;;;;33.92;7.63;;;-0.90;99.90;;;;;;5036556;28;20146;-85
2022/01/26 01:39:33;;;;;;;41.65;9.35;;;-0.90;99.90;;;;;;5070027;28;20016;-85
2022/01/26 01:42:02;;;;;;;33.00;8.77;;;-0.90;99.90;;;;;;5069516;28;20028;-84
2022/01/26 01:44:30;;;;;;;61.50;9.68;;;-0.90;99.90;;;;;;5055063;28;20388;-85
2022/01/26 01:47:04;;;;;;;64.53;9.73;;;-0.90;99.90;;;;;;5070588;28;20182;-85
2022/01/26 01:49:38;;;;;;;25.58;9.05;;;-0.90;99.90;;;;;;5055589;28;20065;-85
2022/01/26 01:52:11;;;;;;;90.68;10.27;;;-0.90;99.90;;;;;;5054534;28;20081;-85
2022/01/26 01:54:40;;;;;;;29.42;7.43;;;-0.90;99.90;;;;;;5071895;28;20024;-84
2022/01/26 01:57:08;;;;;;;25.85;8.38;;;-0.90;99.90;;;;;;5070460;28;20028;-85
2022/01/26 01:59:41;;;;;;;28.88;7.28;;;-0.90;99.90;;;;;;5038542;28;20515;-85
2022/01/26 02:02:10;;;;;;;30.80;8.43;;;-0.90;99.90;;;;;;5089135;28;20047;-85
2022/01/26 02:04:35;;;;;;;29.35;8.07;;;-0.90;99.90;;;;;;5053892;28;20071;-85
2022/01/26 02:07:05;;;;;;;33.50;8.13;;;-0.90;99.90;;;;;;5050424;28;20449;-84
2022/01/26 02:09:33;;;;;;;25.52;7.20;;;-0.90;99.90;;;;;;5052000;28;20039;-85
2022/01/26 02:12:02;;;;;;;33.83;8.68;;;-0.90;99.90;;;;;;5052582;28;20573;-85
2022/01/26 02:14:39;;;;;;;26.88;7.63;;;-0.90;99.90;;;;;;5051760;28;20270;-85
2022/01/26 02:49:21;;;;;;;55.67;8.48;;;-0.80;99.90;;;;;;5054047;28;20036;-84
2022/01/26 02:52:29;;;;;;;37.63;7.90;;;-1.00;99.90;;;;;;5053970;28;20492;-85
2022/01/26 02:57:46;;;;;;;50.17;7.75;;;-1.00;99.90;;;;;;5087758;28;20032;-85
2022/01/26 03:02:52;;;;;;;33.53;6.60;;;-1.00;99.90;;;;;;5074775;28;20028;-85
2022/01/26 03:05:20;;;;;;;68.88;8.48;;;-1.00;99.90;;;;;;5074824;28;20496;-85
2022/01/26 03:07:59;;;;;;;34.78;8.15;;;-1.00;99.90;;;;;;5057686;28;20043;-85
2022/01/26 03:13:00;;;;;;;40.53;8.82;;;-1.00;99.90;;;;;;5083089;28;20028;-85
2022/01/26 03:15:44;;;;;;;48.42;9.73;;;-1.00;99.90;;;;;;5059177;28;20476;-85
2022/01/26 03:20:38;;;;;;;41.60;8.38;;;-1.00;99.90;;;;;;5058701;28;20028;-85
2022/01/26 03:29:37;;;;;;;67.55;9.57;;;-1.00;99.90;;;;;;5076991;28;20043;-85
2022/01/26 03:32:39;;;;;;;61.03;8.38;;;-1.00;99.90;;;;;;5058315;28;20063;-85
2022/01/26 03:34:21;;;;;;;34.92;8.48;;;-1.00;99.90;;;;;;5074056;28;20082;-85
2022/01/26 03:37:08;;;;;;;49.75;10.85;;;-1.00;99.90;;;;;;5053087;28;20036;-84
2022/01/26 03:39:43;;;;;;;43.08;8.52;;;-1.00;99.90;;;;;;5071107;28;20033;-85
2022/01/26 03:42:14;;;;;;;34.05;9.60;;;-1.00;99.90;;;;;;5053738;28;20425;-84
2022/01/26 03:44:41;;;;;;;39.35;8.55;;;-1.00;99.90;;;;;;5074458;28;20070;-85
2022/01/26 03:47:12;;;;;;;38.70;9.45;;;-1.00;99.90;;;;;;5073830;28;20035;-84
2022/01/26 03:52:07;;;;;;;38.67;8.30;;;-0.90;99.90;;;;;;5103591;22;20044;-84
2022/01/26 03:54:33;;;;;;;54.00;8.82;;;-0.90;99.90;;;;;;5044762;28;20503;-84
2022/01/26 03:56:59;;;;;;;37.03;8.13;;;-0.90;99.90;;;;;;5094160;28;20077;-84
2022/01/26 03:59:25;;;;;;;39.30;8.45;;;-0.90;99.90;;;;;;5110886;28;20055;-84
2022/01/26 04:01:54;;;;;;;30.83;9.55;;;-0.90;99.90;;;;;;5066984;28;20106;-84
2022/01/26 04:04:20;;;;;;;41.13;9.15;;;-0.90;99.90;;;;;;5081872;28;20403;-84
2022/01/26 04:06:46;;;;;;;33.42;9.43;;;-0.90;99.90;;;;;;5090538;28;20024;-85
2022/01/26 04:09:17;;;;;;;43.33;10.35;;;-0.90;99.90;;;;;;5068749;28;20049;-84
2022/01/26 04:11:49;;;;;;;46.08;9.40;;;-0.90;99.90;;;;;;5073118;28;20070;-84
2022/01/26 04:14:23;;;;;;;33.17;8.48;;;-0.90;99.90;;;;;;5090254;28;20496;-84
2022/01/26 04:16:49;;;;;;;28.05;7.72;;;-0.90;99.90;;;;;;5072522;28;20111;-84
2022/01/26 04:19:15;;;;;;;35.17;7.90;;;-0.90;99.90;;;;;;5090272;28;20116;-84
2022/01/26 04:21:58;;;;;;;32.33;9.43;;;-1.00;99.90;;;;;;5059011;28;20028;-84
2022/01/26 04:24:39;;;;;;;34.10;8.98;;;-1.00;99.90;;;;;;5055555;28;20036;-84
2022/01/26 04:27:19;;;;;;;32.42;9.38;;;-1.00;99.90;;;;;;5086188;28;20488;-85
2022/01/26 04:29:46;;;;;;;25.97;7.60;;;-0.90;99.90;;;;;;5089812;28;20131;-85
2022/01/26 04:32:14;;;;;;;31.60;8.13;;;-0.90;99.90;;;;;;5089869;28;20282;-84
2022/01/26 04:34:40;;;;;;;36.75;8.40;;;-0.90;99.90;;;;;;5071767;28;20401;-84
2022/01/26 04:37:31;;;;;;;38.67;8.93;;;-0.90;99.90;;;;;;5090570;28;20028;-84
2022/01/26 04:40:05;;;;;;;;;;;-0.90;99.90;;;;;;5077133;28;20028;-84
2022/01/26 04:45:13;;;;;;;40.13;8.65;;;-0.90;99.90;;;;;;5089950;28;20119;-84
2022/01/26 04:47:39;;;;;;;39.70;9.48;;;-0.90;99.90;;;;;;5090007;28;20057;-84
2022/01/26 04:50:08;;;;;;;51.20;9.27;;;-0.90;99.90;;;;;;5089167;28;20031;-84
2022/01/26 04:52:34;;;;;;;48.03;8.65;;;-0.90;99.90;;;;;;5072359;28;20028;-85
2022/01/26 04:55:03;;;;;;;40.53;9.30;;;-0.90;99.90;;;;;;5089081;28;20035;-84
2022/01/26 04:57:29;;;;;;;34.58;7.90;;;-0.90;99.90;;;;;;5089125;28;20047;-85
2022/01/26 04:59:54;;;;;;;34.30;9.45;;;-0.90;99.90;;;;;;5072881;28;20035;-84
2022/01/26 05:02:20;;;;;;;46.58;8.90;;;-0.90;99.90;;;;;;5089464;28;20067;-85
2022/01/26 05:04:52;;;;;;;41.28;9.50;;;-0.90;99.90;;;;;;5089340;28;20153;-84
2022/01/26 05:07:18;;;;;;;32.08;9.23;;;-0.90;99.90;;;;;;5072348;28;20549;-84
2022/01/26 05:09:43;;;;;;;35.08;9.25;;;-0.90;99.90;;;;;;5070613;28;20032;-85
2022/01/26 05:12:12;;;;;;;45.45;9.75;;;-0.90;99.90;;;;;;5082061;28;20064;-84
2022/01/26 05:14:40;;;;;;;64.78;9.43;;;-0.90;99.90;;;;;;5069504;28;20032;-84
2022/01/26 05:17:06;;;;;;;35.80;9.10;;;-0.90;99.90;;;;;;5068754;28;20055;-84
2022/01/26 05:19:41;;;;;;;70.57;9.88;;;-0.90;99.90;;;;;;5068242;28;20020;-84
2022/01/26 05:22:07;;;;;;;35.88;8.40;;;-0.90;99.90;;;;;;5088047;28;20039;-85
2022/01/26 05:24:33;;;;;;;30.08;8.00;;;-0.90;99.90;;;;;;5088780;28;20468;-84
2022/01/26 05:26:58;;;;;;;26.02;8.38;;;-0.90;99.90;;;;;;5088622;28;20040;-84
2022/01/26 05:29:24;;;;;;;23.00;7.53;;;-0.90;99.90;;;;;;5071840;28;20044;-84
2022/01/26 05:31:50;;;;;;;24.45;8.30;;;-0.90;99.90;;;;;;5088527;28;20042;-84
2022/01/26 05:34:16;;;;;;;25.88;7.90;;;-0.90;99.90;;;;;;5071494;28;20123;-84
2022/01/26 05:36:47;;;;;;;28.20;8.15;;;-0.90;99.90;;;;;;5089746;28;20115;-84
2022/01/26 05:39:13;;;;;;;35.35;8.23;;;-0.90;99.90;;;;;;5071761;28;20097;-84
2022/01/26 05:41:41;;;;;;;33.20;8.27;;;-0.90;99.90;;;;;;5071835;28;20115;-85
2022/01/26 05:44:10;;;;;;;29.92;9.10;;;-0.90;99.90;;;;;;5088500;28;20036;-85
2022/01/26 05:49:05;;;;;;;32.28;9.35;;;-0.90;99.90;;;;;;5088895;28;20111;-84
2022/01/26 05:51:34;;;;;;;27.10;7.95;;;-0.90;99.90;;;;;;5089596;28;20081;-84
2022/01/26 05:54:01;;;;;;;29.33;8.40;;;-0.90;99.90;;;;;;5088049;28;20068;-84
2022/01/26 05:56:27;;;;;;;31.13;7.95;;;-0.90;99.90;;;;;;5088197;28;20028;-85
2022/01/26 05:58:52;;;;;;;31.50;8.32;;;-0.90;99.90;;;;;;5071220;28;20076;-84
2022/01/26 06:01:22;;;;;;;28.40;7.57;;;-0.90;99.90;;;;;;5088108;28;20024;-84
2022/01/26 06:03:57;;;;;;;21.95;7.53;;;-0.90;99.90;;;;;;5071900;28;20023;-84
2022/01/26 06:06:31;;;;;;;29.75;8.23;;;-0.90;99.90;;;;;;5088682;28;20032;-85
2022/01/26 06:08:56;;;;;;;25.88;8.90;;;-0.90;99.90;;;;;;5071370;28;20078;-85
2022/01/26 06:11:22;;;;;;;27.75;8.48;;;-0.90;99.90;;;;;;5089569;28;20560;-85
2022/01/26 06:13:48;;;;;;;39.47;8.35;;;-0.90;99.90;;;;;;5071078;28;20028;-85
2022/01/26 06:16:17;;;;;;;33.45;9.10;;;-1.00;99.90;;;;;;5071378;28;20043;-85
2022/01/26 06:18:44;;;;;;;27.85;8.52;;;-1.00;99.90;;;;;;5070969;28;20539;-85
2022/01/26 06:21:10;;;;;;;27.35;8.63;;;-1.00;99.90;;;;;;5068032;28;20037;-84
2022/01/26 06:23:40;;;;;;;28.42;8.05;;;-1.00;99.90;;;;;;5056690;28;20025;-85
2022/01/26 06:26:07;;;;;;;37.40;10.07;;;-1.00;99.90;;;;;;5070882;28;20492;-85
2022/01/26 06:28:33;;;;;;;29.98;8.43;;;-1.00;99.90;;;;;;5087672;28;20051;-84
2022/01/26 06:31:00;;;;;;;27.50;7.88;;;-1.00;99.90;;;;;;5054257;28;20043;-84
2022/01/26 06:33:27;;;;;;;24.25;7.40;;;-1.00;99.90;;;;;;5091322;28;20054;-84
2022/01/26 06:35:56;;;;;;;25.40;7.82;;;-1.00;99.90;;;;;;5091506;28;20052;-84
2022/01/26 06:38:24;;;;;;;37.30;8.38;;;-1.00;99.90;;;;;;5090996;28;20118;-85
2022/01/26 06:40:51;;;;;;;25.13;7.72;;;-1.00;99.90;;;;;;5092149;28;20119;-85
2022/01/26 06:43:21;;;;;;;26.08;8.25;;;-1.00;99.90;;;;;;5092263;28;20035;-84
2022/01/26 06:45:55;;;;;;;;;;;-1.10;99.90;;;;;;5092661;28;20024;-84
2022/01/26 06:48:42;;;;;;;28.55;8.75;;;-1.10;99.90;;;;;;5092151;28;20445;-84
2022/01/26 06:51:11;;;;;;;27.80;7.18;;;-1.10;99.90;;;;;;5067053;28;20055;-85
2022/01/26 06:53:36;;;;;;;21.23;6.50;;;-1.00;99.90;;;;;;5092954;28;20028;-85
2022/01/26 06:56:02;;;;;;;28.67;6.85;;;-1.00;99.90;;;;;;5092123;28;20043;-84
2022/01/26 06:58:28;;;;;;;29.73;8.55;;;-1.00;99.90;;;;;;5074395;28;20059;-84
2022/01/26 07:00:57;;;;;;;33.83;8.32;;;-1.10;99.90;;;;;;5055835;28;20122;-85
2022/01/26 07:03:27;;;;;;;30.85;7.90;;;-1.10;99.90;;;;;;5074699;28;20024;-85
2022/01/26 07:05:53;;;;;;;27.10;8.23;;;-1.10;99.90;;;;;;5073691;28;20039;-86
2022/01/26 07:08:18;;;;;;;28.10;8.38;;;-1.10;99.90;;;;;;5090812;28;20040;-84
2022/01/26 07:10:51;;;;;;;25.85;7.88;;;-1.10;99.90;;;;;;5074575;28;20484;-84
2022/01/26 07:13:17;;;;;;;24.30;8.88;;;-1.10;99.90;;;;;;5091244;28;20446;-85
2022/01/26 07:21:26;;;;;;;38.38;9.05;;;-1.10;99.90;;;;;;5091483;28;20043;-85
2022/01/26 07:23:56;;;;;;;28.27;8.55;;;-1.10;99.90;;;;;;5091746;28;20441;-85
2022/01/26 07:26:28;;;;;;;37.28;9.30;;;-1.10;99.90;;;;;;5076065;28;20036;-85
2022/01/26 07:29:07;;;;;;;38.20;9.77;;;-1.10;99.90;;;;;;5091079;28;20032;-85
2022/01/26 07:31:34;;;;;;;30.08;8.98;;;-1.10;99.90;;;;;;5092280;28;20027;-85
2022/01/26 07:34:00;;;;;;;39.40;10.30;;;-1.10;99.90;;;;;;5090830;28;20395;-85
2022/01/26 07:36:25;;;;;;;34.25;9.00;;;-1.00;99.90;;;;;;5091065;28;20028;-84
2022/01/26 07:38:55;;;;;;;31.25;10.00;;;-1.10;99.90;;;;;;5090588;28;20028;-85
2022/01/26 07:41:20;;;;;;;33.63;10.23;;;-1.10;99.90;;;;;;5092332;28;20047;-85
2022/01/26 07:43:46;;;;;;;32.97;9.60;;;-1.10;99.90;;;;;;5072806;28;20020;-85
2022/01/26 07:46:13;;;;;;;37.00;9.40;;;-1.00;99.90;;;;;;5091053;28;20028;-85
2022/01/26 07:48:39;;;;;;;30.27;8.40;;;-1.00;99.90;;;;;;5090066;28;20032;-85
2022/01/26 07:51:05;;;;;;;34.47;9.32;;;-1.00;99.90;;;;;;5074091;28;20119;-85
2022/01/26 07:53:32;;;;;;;33.13;8.95;;;-1.00;99.90;;;;;;5073931;28;20028;-86
2022/01/26 07:56:08;;;;;;;32.92;10.50;;;-1.00;99.90;;;;;;5088850;28;20032;-85
2022/01/26 07:58:34;;;;;;;37.20;10.13;;;-1.00;99.90;;;;;;5091273;28;20024;-84
2022/01/26 08:00:59;;;;;;;32.75;8.70;;;-1.00;99.90;;;;;;5090589;28;20039;-85
2022/01/26 08:03:27;;;;;;;29.50;9.05;;;-1.00;99.90;;;;;;5069620;28;20024;-85
2022/01/26 08:05:53;;;;;;;47.28;11.10;;;-1.00;99.90;;;;;;5074407;28;20077;-84
2022/01/26 08:08:19;;;;;;;35.40;8.82;;;-1.00;99.90;;;;;;5089798;28;20431;-86
2022/01/26 08:10:49;;;;;;;41.22;9.75;;;-1.10;99.90;;;;;;5073029;28;20046;-85
2022/01/26 08:13:20;;;;;;;39.03;9.32;;;-1.10;99.90;;;;;;5056288;28;20037;-85
2022/01/26 08:15:48;;;;;;;29.17;10.23;;;-1.10;99.90;;;;;;5074076;28;20039;-85
2022/01/26 08:18:14;;;;;;;29.50;9.30;;;-1.00;99.90;;;;;;5069498;28;20111;-85
2022/01/26 08:20:40;;;;;;;31.35;8.93;;;-1.00;99.90;;;;;;5070139;28;20493;-85
2022/01/26 08:23:09;;;;;;;43.60;8.90;;;-1.00;99.90;;;;;;5089907;28;20035;-85
2022/01/26 08:25:35;;;;;;;31.10;9.80;;;-0.90;99.90;;;;;;5056366;28;20036;-85
2022/01/26 08:28:20;;;;;;;42.53;9.70;;;-0.90;99.90;;;;;;5090023;28;20020;-85
2022/01/26 08:30:45;;;;;;;37.35;9.52;;;-0.90;99.90;;;;;;5074606;28;20024;-85
2022/01/26 08:33:11;;;;;;;36.97;8.95;;;-0.90;99.90;;;;;;5089845;28;20495;-85
2022/01/26 08:35:37;;;;;;;34.05;9.77;;;-0.90;99.90;;;;;;5070465;28;20036;-85
2022/01/26 08:38:03;;;;;;;33.67;9.00;;;-0.80;99.90;;;;;;5109697;28;20032;-85
2022/01/26 08:40:30;;;;;;;24.95;9.27;;;-0.80;99.90;;;;;;5110187;28;20031;-85
2022/01/26 08:42:56;;;;;;;32.42;9.75;;;-0.80;99.90;;;;;;5098616;28;20073;-85
2022/01/26 08:45:22;;;;;;;41.72;10.15;;;-0.80;99.90;;;;;;5072217;28;20052;-85
2022/01/26 08:47:49;;;;;;;33.53;8.52;;;-0.80;99.90;;;;;;5089373;28;20565;-85
2022/01/26 08:50:15;;;;;;;30.48;7.80;;;-0.70;99.90;;;;;;5056089;28;20063;-84
2022/01/26 08:52:41;;;;;;;22.95;7.80;;;-0.70;99.90;;;;;;5072688;28;20503;-85
2022/01/26 08:55:07;;;;;;;27.85;8.27;;;-0.70;99.90;;;;;;5091087;28;20024;-85
2022/01/26 08:57:32;;;;;;;16.92;6.25;;;-0.70;99.90;;;;;;5072223;28;20496;-85
2022/01/26 08:59:59;;;;;;;17.08;6.43;;;-0.70;99.90;;;;;;5072518;28;20034;-85
2022/01/26 09:02:35;;;;;;;19.95;6.47;;;-0.70;99.90;;;;;;5068097;28;20040;-85
2022/01/26 09:05:08;;;;;;;20.05;6.35;;;-0.70;99.90;;;;;;5069114;28;20055;-85
2022/01/26 09:07:34;;;;;;;22.60;7.22;;;-0.70;99.90;;;;;;5068732;28;20028;-85
2022/01/26 09:10:02;;;;;;;21.50;6.82;;;-0.70;99.90;;;;;;5086004;28;20153;-85
2022/01/26 09:12:30;;;;;;;20.90;7.22;;;-0.70;99.90;;;;;;5068862;28;20046;-85
2022/01/26 09:15:00;;;;;;;18.17;6.28;;;-0.60;99.90;;;;;;5088729;28;20066;-85
2022/01/26 09:17:27;;;;;;;22.90;6.95;;;-0.60;99.90;;;;;;5072591;28;20597;-85
2022/01/26 09:19:56;;;;;;;23.65;7.22;;;-0.60;99.90;;;;;;5090081;28;20028;-85
2022/01/26 09:22:22;;;;;;;18.10;6.55;;;-0.60;99.90;;;;;;5056526;28;20039;-85
2022/01/26 09:24:48;;;;;;;22.05;7.15;;;-0.50;99.90;;;;;;5090304;28;20032;-85
2022/01/26 09:27:16;;;;;;;22.63;6.97;;;-0.60;99.90;;;;;;5071849;28;20557;-85
2022/01/26 09:29:48;;;;;;;25.45;6.90;;;-0.50;99.90;;;;;;5088502;28;20039;-85
2022/01/26 09:32:15;;;;;;;27.83;6.88;;;-0.50;99.90;;;;;;5072918;28;20038;-85
2022/01/26 09:34:42;;;;;;;20.52;6.72;;;-0.50;99.90;;;;;;5072156;28;20039;-85
2022/01/26 09:37:14;;;;;;;23.20;7.65;;;-0.50;99.90;;;;;;5068251;28;20082;-85
2022/01/26 09:39:43;;;;;;;25.65;7.57;;;-0.50;99.90;;;;;;5068715;28;20031;-85
2022/01/26 09:42:11;;;;;;;26.92;8.65;;;-0.50;99.90;;;;;;5051812;28;20028;-85
2022/01/26 09:44:37;;;;;;;24.70;7.75;;;-0.40;99.90;;;;;;5083377;28;20484;-85
2022/01/26 09:47:04;;;;;;;22.98;7.47;;;-0.40;99.90;;;;;;5088348;28;20077;-86
2022/01/26 09:49:34;;;;;;;25.00;7.65;;;-0.40;99.90;;;;;;5088947;28;20146;-85
2022/01/26 09:52:03;;;;;;;25.73;7.53;;;-0.40;99.90;;;;;;5088351;28;20055;-85
2022/01/26 09:54:31;;;;;;;28.02;8.93;;;-0.40;99.90;;;;;;5088879;22;20498;-85
2022/01/26 09:57:03;;;;;;;24.35;8.25;;;-0.40;99.90;;;;;;5070971;28;20034;-85
2022/01/26 09:59:33;;;;;;;25.15;7.00;;;-0.40;99.90;;;;;;5070538;28;20028;-84
2022/01/26 10:01:59;;;;;;;22.88;7.20;;;-0.40;99.90;;;;;;5055678;28;20465;-85
2022/01/26 10:04:29;;;;;;;25.30;7.68;;;-0.40;99.90;;;;;;5038430;28;20056;-85
2022/01/26 10:15:28;;;;;;;18.15;7.38;;;-0.50;99.90;;;;;;5059140;28;20055;-84
2022/01/26 10:18:18;;;;;;;29.17;7.97;;;-0.50;99.90;;;;;;5056914;28;20059;-83
2022/01/26 10:20:57;;;;;;;14.17;5.20;;;-0.50;99.90;;;;;;5089429;28;20047;-84
2022/01/26 10:23:45;;;;;;;24.35;7.80;;;-0.40;99.90;;;;;;5071346;28;20154;-83
2022/01/26 10:26:19;;;;;;;22.38;7.72;;;-0.40;99.90;;;;;;5089282;28;20047;-84
2022/01/26 10:28:51;;;;;;;26.35;7.45;;;-0.40;99.90;;;;;;5071032;28;20035;-84
2022/01/26 10:31:33;;;;;;;21.77;7.50;;;-0.50;99.90;;;;;;5071451;28;20575;-84
2022/01/26 10:34:06;;;;;;;25.17;7.82;;;-0.40;99.90;;;;;;5054686;28;20117;-84
2022/01/26 10:36:38;;;;;;;30.95;8.63;;;-0.40;99.90;;;;;;5069020;28;20046;-84
2022/01/26 10:39:12;;;;;;;29.42;8.75;;;-0.40;99.90;;;;;;5078244;28;20036;-84
2022/01/26 10:41:40;;;;;;;25.48;8.25;;;-0.40;99.90;;;;;;5089462;28;20430;-84
2022/01/26 10:44:06;;;;;;;21.80;7.97;;;-0.40;99.90;;;;;;5071005;28;20028;-83
2022/01/26 10:46:39;;;;;;;27.65;8.27;;;-0.40;99.90;;;;;;5088695;28;20043;-84
2022/01/26 10:49:14;;;;;;;27.98;7.72;;;-0.40;99.90;;;;;;5089418;28;20026;-84
2022/01/26 10:54:37;;;;;;;24.52;8.00;;;-0.30;99.90;;;;;;5088429;28;20047;-83
2022/01/26 10:57:13;;;;;;;21.48;7.70;;;-0.40;99.90;;;;;;5087422;28;20149;-84
2022/01/26 10:59:42;;;;;;;20.27;7.70;;;-0.30;99.90;;;;;;5071953;28;20028;-83
2022/01/26 11:02:09;;;;;;;23.92;7.78;;;-0.30;99.90;;;;;;5071025;28;20032;-84
2022/01/26 11:04:37;;;;;;;27.63;9.25;;;-0.30;99.90;;;;;;5071061;28;20028;-84
2022/01/26 11:07:07;;;;;;;18.40;7.20;;;-0.20;99.90;;;;;;5070139;28;20035;-84
2022/01/26 11:09:39;;;;;;;22.92;7.88;;;-0.20;99.90;;;;;;5070664;28;20024;-84
2022/01/26 11:12:10;;;;;;;22.23;7.32;;;-0.20;99.90;;;;;;5070624;28;20036;-84
2022/01/26 11:14:47;;;;;;;24.80;7.68;;;-0.20;99.90;;;;;;5070390;28;20024;-84
2022/01/26 11:17:33;;;;;;;17.83;8.10;;;-0.10;99.90;;;;;;5070576;28;20028;-84
2022/01/26 11:20:03;;;;;;;24.50;8.43;;;-0.20;99.90;;;;;;5091388;28;20635;-84
2022/01/26 11:22:32;;;;;;;22.40;8.20;;;-0.10;99.90;;;;;;5092730;28;20488;-84
2022/01/26 11:25:11;;;;;;;25.77;8.60;;;-0.10;99.90;;;;;;5092000;28;20031;-84
2022/01/26 11:27:39;;;;;;;19.03;7.13;;;-0.20;99.90;;;;;;5042821;28;20037;-84
2022/01/26 11:30:25;;;;;;;21.63;8.27;;;-0.10;99.90;;;;;;5054880;28;20319;-84
2022/01/26 11:32:57;;;;;;;22.27;7.97;;;-0.20;99.90;;;;;;5074940;28;20036;-84
2022/01/26 11:35:36;;;;;;;20.15;7.53;;;-0.10;99.90;;;;;;5072951;28;20029;-83
2022/01/26 11:46:35;;;;;;;26.17;8.52;;;-0.10;99.90;;;;;;5076737;28;20434;-84
2022/01/26 11:49:14;;;;;;;27.02;8.68;;;-0.20;99.90;;;;;;5073880;28;20032;-84
2022/01/26 11:51:48;;;;;;;26.30;8.80;;;-0.20;99.90;;;;;;5074152;28;20032;-84
2022/01/26 11:54:21;;;;;;;28.83;8.25;;;-0.20;99.90;;;;;;5091931;28;20380;-84
2022/01/26 11:56:56;;;;;;;25.98;7.47;;;-0.10;99.90;;;;;;5056808;28;20122;-84
2022/01/26 11:59:28;;;;;;;32.92;9.93;;;-0.10;99.90;;;;;;5092228;28;20438;-84
2022/01/26 12:02:08;;;;;;;25.38;9.23;;;0.00;99.90;;;;;;5081307;28;20020;-84
2022/01/26 12:04:37;;;;;;;23.08;8.70;;;0.00;99.90;;;;;;5043528;28;20035;-84
2022/01/26 12:07:23;;;;;;;25.30;8.82;;;0.00;99.90;;;;;;5107010;28;20491;-84
2022/01/26 12:09:52;;;;;;;25.13;8.88;;;0.00;99.90;;;;;;5112254;28;20027;-84
2022/01/26 12:12:20;;;;;;;21.98;8.88;;;0.10;99.90;;;;;;5112005;28;20032;-84
2022/01/26 12:15:07;;;;;;;25.80;9.20;;;0.00;99.90;;;;;;5077166;28;20059;-84
2022/01/26 12:17:38;;;;;;;28.63;9.75;;;0.10;99.90;;;;;;5093138;28;20380;-84
2022/01/26 12:32:04;;;;;;;25.73;9.05;;;0.00;99.90;;;;;;5041016;28;20567;-84
2022/01/26 12:35:07;;;;;;;28.92;8.90;;;0.20;99.90;;;;;;5074528;28;20466;-84
2022/01/26 12:41:24;;;;;;;29.65;9.18;;;0.10;99.90;;;;;;5048646;28;20056;-84
2022/01/26 12:43:59;;;;;;;22.98;8.73;;;0.10;99.90;;;;;;5072248;28;20035;-84
2022/01/26 12:46:30;;;;;;;31.55;8.80;;;0.20;99.90;;;;;;5091056;28;20060;-84
2022/01/26 12:49:19;;;;;;;29.50;8.63;;;0.10;99.90;;;;;;5089834;28;20457;-84
2022/01/26 12:52:00;;;;;;;31.80;9.52;;;0.10;99.90;;;;;;5091065;28;20396;-84
2022/01/26 12:54:32;;;;;;;31.25;9.55;;;0.10;99.90;;;;;;5074031;28;20081;-84
2022/01/26 12:57:06;;;;;;;28.85;9.45;;;0.20;99.90;;;;;;5071882;28;20569;-84
2022/01/26 12:59:32;;;;;;;43.15;11.38;;;0.10;99.90;;;;;;5038633;28;20032;-84
2022/01/26 13:01:57;;;;;;;35.53;10.75;;;0.10;99.90;;;;;;5071827;28;20035;-84
2022/01/26 13:04:25;;;;;;;36.58;10.82;;;0.10;99.90;;;;;;5035927;28;20085;-84
2022/01/26 13:06:52;;;;;;;26.27;9.05;;;0.10;99.90;;;;;;5070020;28;20028;-84
2022/01/26 13:09:24;;;;;;;34.70;9.50;;;0.10;99.90;;;;;;5070503;28;20497;-84
2022/01/26 13:11:51;;;;;;;22.60;8.55;;;0.10;99.90;;;;;;5070119;28;20437;-84
2022/01/26 13:14:27;;;;;;;31.92;10.35;;;0.10;99.90;;;;;;5070970;28;20112;-84
2022/01/26 13:28:02;;;;;;;31.98;10.05;;;0.10;99.90;;;;;;5073961;28;20034;-84
2022/01/26 13:30:56;;;;;;;34.80;10.10;;;0.10;99.90;;;;;;5090376;28;20020;-84
2022/01/26 13:39:27;;;;;;;28.85;9.52;;;0.10;99.90;;;;;;5090190;28;20057;-84
2022/01/26 13:50:01;;;;;;;30.02;9.85;;;0.20;99.90;;;;;;5094214;28;20481;-84
2022/01/26 13:52:41;;;;;;;35.30;9.60;;;0.30;99.90;;;;;;5056326;28;20035;-84
2022/01/26 14:00:39;;;;;;;36.20;11.35;;;0.30;99.90;;;;;;5074918;28;20043;-83
2022/01/26 14:03:08;;;;;;;36.22;10.45;;;0.30;99.90;;;;;;5070166;28;20051;-84
2022/01/26 14:05:34;;;;;;;31.90;11.02;;;0.40;99.90;;;;;;5055951;28;20028;-84
2022/01/26 14:08:00;;;;;;;36.00;10.75;;;0.40;99.90;;;;;;5054468;28;20074;-84
2022/01/26 14:10:26;;;;;;;28.50;11.55;;;0.40;99.90;;;;;;5071282;28;20403;-84
2022/01/26 14:12:51;;;;;;;29.35;10.75;;;0.40;99.90;;;;;;5034790;28;20131;-84
2022/01/26 14:15:36;;;;;;;32.25;11.27;;;0.40;99.90;;;;;;5043511;28;20036;-84
2022/01/26 14:20:47;;;;;;;42.25;11.05;;;0.40;99.90;;;;;;5071251;28;20020;-84
2022/01/26 14:25:48;;;;;;;32.40;9.82;;;0.40;99.90;;;;;;5055877;28;20055;-84
2022/01/26 14:28:27;;;;;;;29.90;9.90;;;0.50;99.90;;;;;;5088458;28;20037;-84
2022/01/26 14:33:54;;;;;;;31.33;11.23;;;0.40;99.90;;;;;;5052922;28;20047;-84
2022/01/26 14:36:42;;;;;;;36.13;11.30;;;0.50;99.90;;;;;;5056078;28;20032;-84
2022/01/26 15:01:02;;;;;;;37.13;13.05;;;0.40;99.90;;;;;;5075337;28;20025;-83
2022/01/26 15:09:18;;;;;;;37.42;11.82;;;0.50;99.90;;;;;;5077458;28;20554;-84
2022/01/26 15:44:17;;;;;;;39.60;12.68;;;0.30;99.90;;;;;;5092154;28;20472;-84
2022/01/26 15:52:35;;;;;;;35.22;13.30;;;0.20;99.90;;;;;;5072024;28;20044;-83
2022/01/26 16:12:40;;;;;;;45.53;14.23;;;0.20;99.90;;;;;;5074890;28;20063;-85
2022/01/26 16:38:54;;;;;;;44.47;12.00;;;0.00;99.90;;;;;;5076261;28;19968;-83
2022/01/26 16:52:27;;;;;;;28.17;11.00;;;0.00;99.90;;;;;;5062034;28;20097;-83
2022/01/26 18:26:23;;;;;;;50.08;14.32;;;-0.40;99.90;;;;;;5068851;28;20574;-83
2022/01/26 18:50:33;;;;;;;42.97;13.98;;;-0.50;99.90;;;;;;5072621;28;20047;-83
2022/01/26 18:53:02;;;;;;;46.42;14.07;;;-0.50;99.90;;;;;;5055861;28;20059;-84
2022/01/26 18:55:27;;;;;;;36.22;11.65;;;-0.50;99.90;;;;;;5055161;28;20032;-83
2022/01/26 18:57:53;;;;;;;48.65;13.82;;;-0.50;99.90;;;;;;5071417;28;20046;-83
2022/01/26 19:00:19;;;;;;;40.05;12.35;;;-0.50;99.90;;;;;;5072242;28;20042;-82
2022/01/26 19:02:45;;;;;;;41.20;13.82;;;-0.50;99.90;;;;;;5054797;28;20048;-83
2022/01/26 19:05:12;;;;;;;37.30;13.55;;;-0.50;99.90;;;;;;5053856;28;20075;-82
2022/01/26 19:07:40;;;;;;;49.42;14.68;;;-0.50;99.90;;;;;;5055143;28;20044;-83
2022/01/26 19:10:11;;;;;;;39.90;12.35;;;-0.50;99.90;;;;;;5055791;28;20039;-83
2022/01/26 19:12:38;;;;;;;36.03;12.35;;;-0.50;99.90;;;;;;5039078;28;20082;-83
2022/01/26 19:15:10;;;;;;;46.08;13.88;;;-0.50;99.90;;;;;;5071083;28;20036;-84
2022/01/26 19:20:51;;;;;;;;;;;-0.50;99.90;;;;;;5049798;28;20508;-83
2022/01/26 19:26:13;;;;;;;46.38;13.05;;;-0.50;99.90;;;;;;5043528;28;20512;-83
2022/01/26 19:28:43;;;;;;;50.17;14.27;;;-0.50;99.90;;;;;;5037076;28;20398;-83
2022/01/26 19:44:50;;;;;;;38.63;12.40;;;-0.50;99.90;;;;;;5071432;28;20029;-84
2022/01/26 19:53:06;;;;;;;43.05;13.50;;;-0.60;99.90;;;;;;5061307;28;20162;-83
2022/01/26 19:55:35;;;;;;;38.53;13.25;;;-0.60;99.90;;;;;;5053923;28;20102;-83
2022/01/26 19:58:10;;;;;;;51.13;14.43;;;-0.60;99.90;;;;;;5053824;28;20039;-83
2022/01/26 20:00:46;;;;;;;39.78;14.27;;;-0.60;99.90;;;;;;5056008;28;20468;-83
2022/01/26 20:03:13;;;;;;;48.53;15.00;;;-0.60;99.90;;;;;;5070951;28;20025;-84